sensor_id;sensor_type;location;lat;lon;timestamp;P1;durP1;ratioP1;P2;durP2;ratioP2
77415;SDS011;66489;49.230;8.520;2023-03-02T04:57:44;36.17;;;17.08;;
77415;SDS011;66489;49.230;8.520;2023-03-02T05:00:10;33.28;;;16.55;;
77415;SDS011;66489;49.230;8.520;2023-03-02T05:02:38;30.88;;;15.18;;
77415;SDS011;66489;49.230;8.520;2023-03-02T05:05:06;30.30;;;14.93;;
77415;SDS011;66489;49.230;8.520;2023-03-02T05:07:33;32.13;;;15.43;;
77415;SDS011;66489;49.230;8.520;2023-03-02T05:09:59;33.60;;;16.65;;
77415;SDS011;66489;49.230;8.520;2023-03-02T05:12:26;34.97;;;16.25;;
77415;SDS011;66489;49.230;8.520;2023-03-02T05:14:52;35.70;;;18.73;;
77415;SDS011;66489;49.230;8.520;2023-03-02T05:17:19;33.92;;;16.90;;
77415;SDS011;66489;49.230;8.520;2023-03-02T05:19:45;32.90;;;16.08;;
77415;SDS011;66489;49.230;8.520;2023-03-02T05:22:11;32.00;;;16.13;;
77415;SDS011;66489;49.230;8.520;2023-03-02T05:24:38;32.60;;;16.25;;
77415;SDS011;66489;49.230;8.520;2023-03-02T05:27:04;32.30;;;15.88;;
77415;SDS011;66489;49.230;8.520;2023-03-02T05:29:31;31.20;;;15.25;;
77415;SDS011;66489;49.230;8.520;2023-03-02T05:31:57;34.25;;;16.73;;
77415;SDS011;66489;49.230;8.520;2023-03-02T05:34:24;32.88;;;16.02;;
77415;SDS011;66489;49.230;8.520;2023-03-02T05:36:50;32.15;;;16.77;;
77415;SDS011;66489;49.230;8.520;2023-03-02T05:39:17;33.08;;;15.88;;
77415;SDS011;66489;49.230;8.520;2023-03-02T05:41:43;33.47;;;15.35;;
77415;SDS011;66489;49.230;8.520;2023-03-02T05:44:10;34.15;;;16.17;;
77415;SDS011;66489;49.230;8.520;2023-03-02T05:46:37;34.08;;;16.02;;
77415;SDS011;66489;49.230;8.520;2023-03-02T05:49:04;34.33;;;16.30;;
77415;SDS011;66489;49.230;8.520;2023-03-02T05:51:31;33.70;;;16.13;;
77415;SDS011;66489;49.230;8.520;2023-03-02T05:53:57;36.90;;;17.08;;
77415;SDS011;66489;49.230;8.520;2023-03-02T05:56:27;39.08;;;17.30;;
77415;SDS011;66489;49.230;8.520;2023-03-02T05:58:53;36.92;;;17.17;;
77415;SDS011;66489;49.230;8.520;2023-03-02T06:01:20;45.50;;;21.13;;
77415;SDS011;66489;49.230;8.520;2023-03-02T06:03:46;42.65;;;20.88;;
77415;SDS011;66489;49.230;8.520;2023-03-02T06:06:13;38.55;;;19.50;;
77415;SDS011;66489;49.230;8.520;2023-03-02T06:08:40;42.10;;;21.23;;
77415;SDS011;66489;49.230;8.520;2023-03-02T06:11:10;46.80;;;20.45;;
77415;SDS011;66489;49.230;8.520;2023-03-02T06:13:39;38.53;;;19.42;;
77415;SDS011;66489;49.230;8.520;2023-03-02T06:16:09;37.83;;;18.00;;
77415;SDS011;66489;49.230;8.520;2023-03-02T06:21:07;37.78;;;17.27;;
77415;SDS011;66489;49.230;8.520;2023-03-02T06:23:39;36.17;;;16.23;;
77415;SDS011;66489;49.230;8.520;2023-03-02T06:26:06;32.88;;;15.43;;
77415;SDS011;66489;49.230;8.520;2023-03-02T06:28:34;32.55;;;14.65;;
77415;SDS011;66489;49.230;8.520;2023-03-02T06:31:16;35.08;;;15.20;;
77415;SDS011;66489;49.230;8.520;2023-03-02T06:33:42;34.42;;;15.23;;
77415;SDS011;66489;49.230;8.520;2023-03-02T06:36:09;31.45;;;14.60;;
77415;SDS011;66489;49.230;8.520;2023-03-02T06:38:37;39.72;;;15.65;;
77415;SDS011;66489;49.230;8.520;2023-03-02T06:41:04;33.63;;;15.43;;
77415;SDS011;66489;49.230;8.520;2023-03-02T06:43:31;33.10;;;14.73;;
77415;SDS011;66489;49.230;8.520;2023-03-02T06:45:58;33.92;;;15.35;;
77415;SDS011;66489;49.230;8.520;2023-03-02T06:48:26;34.80;;;16.42;;
77415;SDS011;66489;49.230;8.520;2023-03-02T06:50:52;37.10;;;15.75;;
77415;SDS011;66489;49.230;8.520;2023-03-02T06:53:19;33.45;;;15.43;;
77415;SDS011;66489;49.230;8.520;2023-03-02T06:55:48;32.10;;;15.55;;
77415;SDS011;66489;49.230;8.520;2023-03-02T06:58:15;34.17;;;15.82;;
77415;SDS011;66489;49.230;8.520;2023-03-02T07:00:42;30.42;;;15.73;;
77415;SDS011;66489;49.230;8.520;2023-03-02T07:03:08;33.28;;;15.88;;
77415;SDS011;66489;49.230;8.520;2023-03-02T07:05:35;32.85;;;15.18;;
77415;SDS011;66489;49.230;8.520;2023-03-02T07:08:02;34.30;;;15.88;;
77415;SDS011;66489;49.230;8.520;2023-03-02T07:10:29;34.15;;;15.90;;
77415;SDS011;66489;49.230;8.520;2023-03-02T07:12:55;33.00;;;15.38;;
77415;SDS011;66489;49.230;8.520;2023-03-02T07:15:22;33.45;;;15.68;;
77415;SDS011;66489;49.230;8.520;2023-03-02T07:17:48;33.42;;;15.93;;
77415;SDS011;66489;49.230;8.520;2023-03-02T07:20:16;32.33;;;15.68;;
77415;SDS011;66489;49.230;8.520;2023-03-02T07:22:43;35.45;;;16.45;;
77415;SDS011;66489;49.230;8.520;2023-03-02T07:25:10;34.25;;;16.08;;
77415;SDS011;66489;49.230;8.520;2023-03-02T07:27:36;30.58;;;15.73;;
77415;SDS011;66489;49.230;8.520;2023-03-02T07:30:04;33.83;;;16.00;;
77415;SDS011;66489;49.230;8.520;2023-03-02T07:32:31;32.22;;;16.00;;
77415;SDS011;66489;49.230;8.520;2023-03-02T07:34:57;32.70;;;15.57;;
77415;SDS011;66489;49.230;8.520;2023-03-02T07:37:24;33.35;;;16.50;;
77415;SDS011;66489;49.230;8.520;2023-03-02T07:39:51;36.10;;;17.90;;
77415;SDS011;66489;49.230;8.520;2023-03-02T07:42:17;40.03;;;18.30;;
77415;SDS011;66489;49.230;8.520;2023-03-02T07:44:51;33.13;;;17.17;;
77415;SDS011;66489;49.230;8.520;2023-03-02T07:47:19;34.35;;;16.50;;
77415;SDS011;66489;49.230;8.520;2023-03-02T07:49:45;31.95;;;16.45;;
77415;SDS011;66489;49.230;8.520;2023-03-02T07:52:12;36.78;;;16.42;;
77415;SDS011;66489;49.230;8.520;2023-03-02T07:54:39;35.33;;;17.80;;
77415;SDS011;66489;49.230;8.520;2023-03-02T07:57:05;35.88;;;17.05;;
77415;SDS011;66489;49.230;8.520;2023-03-02T07:59:31;39.63;;;17.25;;
77415;SDS011;66489;49.230;8.520;2023-03-02T08:01:58;32.50;;;16.98;;
77415;SDS011;66489;49.230;8.520;2023-03-02T08:04:25;33.72;;;17.35;;
77415;SDS011;66489;49.230;8.520;2023-03-02T08:06:52;34.50;;;16.60;;
77415;SDS011;66489;49.230;8.520;2023-03-02T08:09:18;31.85;;;16.58;;
77415;SDS011;66489;49.230;8.520;2023-03-02T08:11:45;37.40;;;17.38;;
77415;SDS011;66489;49.230;8.520;2023-03-02T08:14:15;31.83;;;16.00;;
77415;SDS011;66489;49.230;8.520;2023-03-02T08:16:42;33.97;;;17.42;;
77415;SDS011;66489;49.230;8.520;2023-03-02T08:19:11;30.58;;;15.90;;
77415;SDS011;66489;49.230;8.520;2023-03-02T08:21:38;33.25;;;16.38;;
77415;SDS011;66489;49.230;8.520;2023-03-02T08:24:05;31.88;;;16.27;;
77415;SDS011;66489;49.230;8.520;2023-03-02T08:26:31;33.45;;;16.00;;
77415;SDS011;66489;49.230;8.520;2023-03-02T08:28:58;33.38;;;15.98;;
77415;SDS011;66489;49.230;8.520;2023-03-02T08:31:24;30.13;;;16.23;;
77415;SDS011;66489;49.230;8.520;2023-03-02T08:33:52;31.73;;;16.50;;
77415;SDS011;66489;49.230;8.520;2023-03-02T08:36:18;32.55;;;16.27;;
77415;SDS011;66489;49.230;8.520;2023-03-02T08:38:45;28.80;;;15.25;;
77415;SDS011;66489;49.230;8.520;2023-03-02T08:41:22;30.17;;;15.80;;
77415;SDS011;66489;49.230;8.520;2023-03-02T08:43:48;31.48;;;15.82;;
77415;SDS011;66489;49.230;8.520;2023-03-02T08:46:19;36.20;;;16.58;;
77415;SDS011;66489;49.230;8.520;2023-03-02T08:48:46;31.33;;;16.05;;
77415;SDS011;66489;49.230;8.520;2023-03-02T08:51:15;32.28;;;15.95;;
77415;SDS011;66489;49.230;8.520;2023-03-02T08:53:44;28.73;;;15.63;;
77415;SDS011;66489;49.230;8.520;2023-03-02T08:56:19;28.73;;;15.27;;
77415;SDS011;66489;49.230;8.520;2023-03-02T08:58:56;29.55;;;16.17;;
77415;SDS011;66489;49.230;8.520;2023-03-02T09:01:27;29.67;;;15.93;;
77415;SDS011;66489;49.230;8.520;2023-03-02T09:03:55;28.90;;;15.20;;
77415;SDS011;66489;49.230;8.520;2023-03-02T09:06:25;30.92;;;16.85;;
77415;SDS011;66489;49.230;8.520;2023-03-02T09:08:52;32.28;;;16.02;;
77415;SDS011;66489;49.230;8.520;2023-03-02T09:11:19;31.27;;;15.98;;
77415;SDS011;66489;49.230;8.520;2023-03-02T09:13:45;29.63;;;15.82;;
77415;SDS011;66489;49.230;8.520;2023-03-02T09:16:12;30.55;;;15.55;;
77415;SDS011;66489;49.230;8.520;2023-03-02T09:18:40;30.60;;;16.48;;
77415;SDS011;66489;49.230;8.520;2023-03-02T09:21:07;30.63;;;17.10;;
77415;SDS011;66489;49.230;8.520;2023-03-02T09:23:35;28.17;;;14.77;;
77415;SDS011;66489;49.230;8.520;2023-03-02T09:26:02;31.52;;;15.80;;
77415;SDS011;66489;49.230;8.520;2023-03-02T09:28:29;33.92;;;16.00;;
77415;SDS011;66489;49.230;8.520;2023-03-02T09:30:57;32.35;;;16.25;;
77415;SDS011;66489;49.230;8.520;2023-03-02T09:33:26;28.60;;;15.23;;
77415;SDS011;66489;49.230;8.520;2023-03-02T09:35:52;26.70;;;14.43;;
77415;SDS011;66489;49.230;8.520;2023-03-02T09:38:19;27.35;;;14.68;;
77415;SDS011;66489;49.230;8.520;2023-03-02T09:43:29;30.15;;;15.30;;
77415;SDS011;66489;49.230;8.520;2023-03-02T09:48:39;27.77;;;15.52;;
77415;SDS011;66489;49.230;8.520;2023-03-02T09:51:24;29.52;;;15.85;;
77415;SDS011;66489;49.230;8.520;2023-03-02T09:54:16;26.35;;;15.13;;
77415;SDS011;66489;49.230;8.520;2023-03-02T09:56:49;28.53;;;15.40;;
77415;SDS011;66489;49.230;8.520;2023-03-02T10:02:32;30.47;;;15.63;;
77415;SDS011;66489;49.230;8.520;2023-03-02T10:04:45;28.67;;;15.38;;
77415;SDS011;66489;49.230;8.520;2023-03-02T10:07:15;30.00;;;14.90;;
77415;SDS011;66489;49.230;8.520;2023-03-02T10:09:43;25.42;;;15.07;;
77415;SDS011;66489;49.230;8.520;2023-03-02T10:15:07;28.25;;;14.45;;
77415;SDS011;66489;49.230;8.520;2023-03-02T10:20:15;25.45;;;13.43;;
77415;SDS011;66489;49.230;8.520;2023-03-02T10:22:45;25.90;;;14.00;;
77415;SDS011;66489;49.230;8.520;2023-03-02T10:25:36;24.05;;;13.32;;
77415;SDS011;66489;49.230;8.520;2023-03-02T10:28:18;28.83;;;14.65;;
77415;SDS011;66489;49.230;8.520;2023-03-02T10:30:52;25.55;;;14.18;;
77415;SDS011;66489;49.230;8.520;2023-03-02T10:33:23;26.35;;;14.02;;
77415;SDS011;66489;49.230;8.520;2023-03-02T10:35:51;24.52;;;13.40;;
77415;SDS011;66489;49.230;8.520;2023-03-02T10:38:22;23.92;;;13.63;;
77415;SDS011;66489;49.230;8.520;2023-03-02T10:40:50;23.38;;;12.63;;
77415;SDS011;66489;49.230;8.520;2023-03-02T10:43:34;22.67;;;12.55;;
77415;SDS011;66489;49.230;8.520;2023-03-02T10:46:06;25.13;;;13.35;;
77415;SDS011;66489;49.230;8.520;2023-03-02T10:48:53;26.67;;;13.05;;
77415;SDS011;66489;49.230;8.520;2023-03-02T10:51:28;24.45;;;12.75;;
77415;SDS011;66489;49.230;8.520;2023-03-02T10:56:34;22.08;;;12.88;;
77415;SDS011;66489;49.230;8.520;2023-03-02T10:59:11;20.33;;;12.77;;
77415;SDS011;66489;49.230;8.520;2023-03-02T11:04:41;21.77;;;12.65;;
77415;SDS011;66489;49.230;8.520;2023-03-02T11:07:18;20.08;;;12.60;;
77415;SDS011;66489;49.230;8.520;2023-03-02T11:12:23;20.70;;;11.93;;
77415;SDS011;66489;49.230;8.520;2023-03-02T11:14:59;19.17;;;12.65;;
77415;SDS011;66489;49.230;8.520;2023-03-02T11:17:45;23.25;;;12.60;;
77415;SDS011;66489;49.230;8.520;2023-03-02T11:20:19;24.58;;;12.90;;
77415;SDS011;66489;49.230;8.520;2023-03-02T11:22:55;20.63;;;12.00;;
77415;SDS011;66489;49.230;8.520;2023-03-02T11:25:27;22.30;;;13.13;;
77415;SDS011;66489;49.230;8.520;2023-03-02T11:31:03;55.92;;;26.48;;
77415;SDS011;66489;49.230;8.520;2023-03-02T11:33:38;26.95;;;14.98;;
77415;SDS011;66489;49.230;8.520;2023-03-02T11:36:11;48.42;;;26.48;;
77415;SDS011;66489;49.230;8.520;2023-03-02T11:38:52;26.98;;;14.98;;
77415;SDS011;66489;49.230;8.520;2023-03-02T11:41:23;21.80;;;13.25;;
77415;SDS011;66489;49.230;8.520;2023-03-02T11:43:52;35.17;;;21.25;;
77415;SDS011;66489;49.230;8.520;2023-03-02T11:46:27;25.58;;;13.65;;
77415;SDS011;66489;49.230;8.520;2023-03-02T11:48:56;23.75;;;14.80;;
77415;SDS011;66489;49.230;8.520;2023-03-02T11:51:35;19.83;;;12.65;;
77415;SDS011;66489;49.230;8.520;2023-03-02T11:54:35;28.55;;;17.52;;
77415;SDS011;66489;49.230;8.520;2023-03-02T11:57:09;47.72;;;28.77;;
77415;SDS011;66489;49.230;8.520;2023-03-02T11:59:44;21.25;;;12.65;;
77415;SDS011;66489;49.230;8.520;2023-03-02T12:02:11;22.55;;;13.27;;
77415;SDS011;66489;49.230;8.520;2023-03-02T12:04:39;27.70;;;16.30;;
77415;SDS011;66489;49.230;8.520;2023-03-02T12:07:22;20.05;;;12.57;;
77415;SDS011;66489;49.230;8.520;2023-03-02T12:09:57;25.13;;;14.95;;
77415;SDS011;66489;49.230;8.520;2023-03-02T12:14:51;20.63;;;12.88;;
77415;SDS011;66489;49.230;8.520;2023-03-02T12:19:47;57.35;;;32.50;;
77415;SDS011;66489;49.230;8.520;2023-03-02T12:22:25;24.40;;;14.50;;
77415;SDS011;66489;49.230;8.520;2023-03-02T12:27:46;20.15;;;11.93;;
77415;SDS011;66489;49.230;8.520;2023-03-02T12:32:45;76.40;;;43.47;;
77415;SDS011;66489;49.230;8.520;2023-03-02T12:35:35;63.55;;;36.80;;
77415;SDS011;66489;49.230;8.520;2023-03-02T12:38:04;43.63;;;25.73;;
77415;SDS011;66489;49.230;8.520;2023-03-02T12:46:31;19.33;;;11.95;;
77415;SDS011;66489;49.230;8.520;2023-03-02T12:51:59;18.05;;;11.20;;
77415;SDS011;66489;49.230;8.520;2023-03-02T12:54:31;18.77;;;11.60;;
77415;SDS011;66489;49.230;8.520;2023-03-02T12:57:03;19.75;;;11.13;;
77415;SDS011;66489;49.230;8.520;2023-03-02T12:59:40;15.48;;;10.25;;
77415;SDS011;66489;49.230;8.520;2023-03-02T13:02:14;16.73;;;10.68;;
77415;SDS011;66489;49.230;8.520;2023-03-02T13:04:42;17.83;;;12.30;;
77415;SDS011;66489;49.230;8.520;2023-03-02T13:07:14;18.80;;;11.35;;
77415;SDS011;66489;49.230;8.520;2023-03-02T13:09:42;21.60;;;13.90;;
77415;SDS011;66489;49.230;8.520;2023-03-02T13:14:51;18.38;;;11.10;;
77415;SDS011;66489;49.230;8.520;2023-03-02T13:17:21;17.50;;;11.00;;
77415;SDS011;66489;49.230;8.520;2023-03-02T13:19:52;16.65;;;10.60;;
77415;SDS011;66489;49.230;8.520;2023-03-02T13:22:19;17.73;;;11.23;;
77415;SDS011;66489;49.230;8.520;2023-03-02T13:24:58;17.77;;;11.65;;
77415;SDS011;66489;49.230;8.520;2023-03-02T13:27:27;14.88;;;10.35;;
77415;SDS011;66489;49.230;8.520;2023-03-02T13:29:55;16.35;;;10.80;;
77415;SDS011;66489;49.230;8.520;2023-03-02T13:34:51;13.50;;;9.77;;
77415;SDS011;66489;49.230;8.520;2023-03-02T13:37:31;20.55;;;11.77;;
77415;SDS011;66489;49.230;8.520;2023-03-02T13:40:02;22.45;;;12.25;;
77415;SDS011;66489;49.230;8.520;2023-03-02T13:42:35;21.23;;;11.50;;
77415;SDS011;66489;49.230;8.520;2023-03-02T13:45:37;18.30;;;12.40;;
77415;SDS011;66489;49.230;8.520;2023-03-02T13:47:58;18.25;;;12.35;;
77415;SDS011;66489;49.230;8.520;2023-03-02T13:50:26;17.98;;;12.45;;
77415;SDS011;66489;49.230;8.520;2023-03-02T13:52:57;17.70;;;13.18;;
77415;SDS011;66489;49.230;8.520;2023-03-02T13:55:27;19.90;;;12.65;;
77415;SDS011;66489;49.230;8.520;2023-03-02T13:57:54;19.02;;;12.18;;
77415;SDS011;66489;49.230;8.520;2023-03-02T14:00:33;16.08;;;11.45;;
77415;SDS011;66489;49.230;8.520;2023-03-02T14:03:00;15.88;;;11.45;;
77415;SDS011;66489;49.230;8.520;2023-03-02T14:05:27;18.63;;;12.75;;
77415;SDS011;66489;49.230;8.520;2023-03-02T14:07:58;20.73;;;13.80;;
77415;SDS011;66489;49.230;8.520;2023-03-02T14:10:25;18.30;;;12.18;;
77415;SDS011;66489;49.230;8.520;2023-03-02T14:12:53;18.88;;;12.25;;
77415;SDS011;66489;49.230;8.520;2023-03-02T14:15:22;19.92;;;12.77;;
77415;SDS011;66489;49.230;8.520;2023-03-02T14:17:48;20.88;;;12.63;;
77415;SDS011;66489;49.230;8.520;2023-03-02T14:20:16;20.05;;;12.13;;
77415;SDS011;66489;49.230;8.520;2023-03-02T14:22:45;18.65;;;11.88;;
77415;SDS011;66489;49.230;8.520;2023-03-02T14:25:12;18.83;;;11.35;;
77415;SDS011;66489;49.230;8.520;2023-03-02T14:27:40;18.85;;;11.52;;
77415;SDS011;66489;49.230;8.520;2023-03-02T14:30:17;21.13;;;13.35;;
77415;SDS011;66489;49.230;8.520;2023-03-02T14:32:45;22.38;;;12.38;;
77415;SDS011;66489;49.230;8.520;2023-03-02T14:35:12;20.30;;;13.20;;
77415;SDS011;66489;49.230;8.520;2023-03-02T14:37:42;22.60;;;13.43;;
77415;SDS011;66489;49.230;8.520;2023-03-02T14:40:17;22.58;;;14.45;;
77415;SDS011;66489;49.230;8.520;2023-03-02T14:42:52;19.45;;;12.30;;
77415;SDS011;66489;49.230;8.520;2023-03-02T14:45:19;21.73;;;12.82;;
77415;SDS011;66489;49.230;8.520;2023-03-02T14:47:46;22.50;;;12.77;;
77415;SDS011;66489;49.230;8.520;2023-03-02T14:50:14;21.90;;;12.98;;
77415;SDS011;66489;49.230;8.520;2023-03-02T14:55:22;23.10;;;12.30;;
77415;SDS011;66489;49.230;8.520;2023-03-02T15:00:32;21.52;;;12.30;;
77415;SDS011;66489;49.230;8.520;2023-03-02T15:02:59;23.85;;;12.50;;
77415;SDS011;66489;49.230;8.520;2023-03-02T15:05:25;25.67;;;12.82;;
77415;SDS011;66489;49.230;8.520;2023-03-02T15:07:52;20.52;;;11.80;;
77415;SDS011;66489;49.230;8.520;2023-03-02T15:10:24;22.58;;;12.43;;
77415;SDS011;66489;49.230;8.520;2023-03-02T15:12:50;22.90;;;12.73;;
77415;SDS011;66489;49.230;8.520;2023-03-02T15:15:17;21.40;;;12.48;;
77415;SDS011;66489;49.230;8.520;2023-03-02T15:17:44;19.48;;;11.90;;
77415;SDS011;66489;49.230;8.520;2023-03-02T15:20:12;21.30;;;11.73;;
77415;SDS011;66489;49.230;8.520;2023-03-02T15:22:40;21.33;;;11.65;;
77415;SDS011;66489;49.230;8.520;2023-03-02T15:25:07;19.52;;;12.02;;
77415;SDS011;66489;49.230;8.520;2023-03-02T15:27:34;19.20;;;11.75;;
77415;SDS011;66489;49.230;8.520;2023-03-02T15:30:00;20.83;;;11.57;;
77415;SDS011;66489;49.230;8.520;2023-03-02T15:32:27;22.00;;;11.50;;
77415;SDS011;66489;49.230;8.520;2023-03-02T15:34:54;21.27;;;12.27;;
77415;SDS011;66489;49.230;8.520;2023-03-02T15:37:20;20.50;;;11.90;;
77415;SDS011;66489;49.230;8.520;2023-03-02T15:39:51;20.17;;;12.23;;
77415;SDS011;66489;49.230;8.520;2023-03-02T15:42:20;24.05;;;12.88;;
77415;SDS011;66489;49.230;8.520;2023-03-02T15:44:47;21.25;;;12.13;;
77415;SDS011;66489;49.230;8.520;2023-03-02T15:47:14;20.00;;;12.07;;
77415;SDS011;66489;49.230;8.520;2023-03-02T15:49:41;20.80;;;11.32;;
77415;SDS011;66489;49.230;8.520;2023-03-02T15:52:08;26.02;;;12.45;;
77415;SDS011;66489;49.230;8.520;2023-03-02T15:54:35;23.15;;;13.13;;
77415;SDS011;66489;49.230;8.520;2023-03-02T15:57:02;22.17;;;12.23;;
77415;SDS011;66489;49.230;8.520;2023-03-02T15:59:29;20.67;;;12.30;;
77415;SDS011;66489;49.230;8.520;2023-03-02T16:01:56;21.42;;;12.57;;
77415;SDS011;66489;49.230;8.520;2023-03-02T16:04:28;21.67;;;13.70;;
77415;SDS011;66489;49.230;8.520;2023-03-02T16:06:55;22.05;;;13.75;;
77415;SDS011;66489;49.230;8.520;2023-03-02T16:09:22;24.65;;;14.77;;
77415;SDS011;66489;49.230;8.520;2023-03-02T16:11:50;25.55;;;14.45;;
77415;SDS011;66489;49.230;8.520;2023-03-02T16:14:17;26.35;;;13.95;;
77415;SDS011;66489;49.230;8.520;2023-03-02T16:16:44;24.08;;;12.98;;
77415;SDS011;66489;49.230;8.520;2023-03-02T16:19:12;24.08;;;13.65;;
77415;SDS011;66489;49.230;8.520;2023-03-02T16:21:43;23.65;;;13.63;;
77415;SDS011;66489;49.230;8.520;2023-03-02T16:24:09;22.40;;;13.02;;
77415;SDS011;66489;49.230;8.520;2023-03-02T16:26:38;25.20;;;13.75;;
77415;SDS011;66489;49.230;8.520;2023-03-02T16:29:05;24.52;;;14.75;;
77415;SDS011;66489;49.230;8.520;2023-03-02T16:31:34;55.42;;;29.75;;
77415;SDS011;66489;49.230;8.520;2023-03-02T16:34:03;47.07;;;23.70;;
77415;SDS011;66489;49.230;8.520;2023-03-02T16:36:35;28.70;;;15.82;;
77415;SDS011;66489;49.230;8.520;2023-03-02T16:39:03;25.83;;;14.73;;
77415;SDS011;66489;49.230;8.520;2023-03-02T16:41:30;24.65;;;14.75;;
77415;SDS011;66489;49.230;8.520;2023-03-02T16:43:57;28.35;;;15.65;;
77415;SDS011;66489;49.230;8.520;2023-03-02T16:46:26;41.55;;;18.98;;
77415;SDS011;66489;49.230;8.520;2023-03-02T16:48:54;42.78;;;23.90;;
77415;SDS011;66489;49.230;8.520;2023-03-02T16:51:21;35.60;;;19.60;;
77415;SDS011;66489;49.230;8.520;2023-03-02T16:53:48;38.20;;;22.90;;
77415;SDS011;66489;49.230;8.520;2023-03-02T16:56:15;44.45;;;24.95;;
77415;SDS011;66489;49.230;8.520;2023-03-02T16:58:42;41.08;;;23.90;;
77415;SDS011;66489;49.230;8.520;2023-03-02T17:01:10;26.25;;;15.05;;
77415;SDS011;66489;49.230;8.520;2023-03-02T17:06:05;27.73;;;15.43;;
77415;SDS011;66489;49.230;8.520;2023-03-02T17:08:32;31.08;;;15.68;;
77415;SDS011;66489;49.230;8.520;2023-03-02T17:10:59;29.35;;;15.93;;
77415;SDS011;66489;49.230;8.520;2023-03-02T17:13:26;27.40;;;15.98;;
77415;SDS011;66489;49.230;8.520;2023-03-02T17:15:53;27.00;;;16.20;;
77415;SDS011;66489;49.230;8.520;2023-03-02T17:18:20;29.83;;;17.17;;
77415;SDS011;66489;49.230;8.520;2023-03-02T17:20:49;30.98;;;16.77;;
77415;SDS011;66489;49.230;8.520;2023-03-02T17:23:17;29.58;;;17.38;;
77415;SDS011;66489;49.230;8.520;2023-03-02T17:25:43;31.15;;;18.83;;
77415;SDS011;66489;49.230;8.520;2023-03-02T17:28:10;30.00;;;18.05;;
77415;SDS011;66489;49.230;8.520;2023-03-02T17:30:38;29.73;;;16.40;;
77415;SDS011;66489;49.230;8.520;2023-03-02T17:33:05;30.48;;;16.48;;
77415;SDS011;66489;49.230;8.520;2023-03-02T17:35:31;27.73;;;15.80;;
77415;SDS011;66489;49.230;8.520;2023-03-02T17:37:58;27.58;;;16.55;;
77415;SDS011;66489;49.230;8.520;2023-03-02T17:40:25;28.52;;;16.90;;
77415;SDS011;66489;49.230;8.520;2023-03-02T17:42:52;28.65;;;17.42;;
77415;SDS011;66489;49.230;8.520;2023-03-02T17:45:23;34.35;;;18.50;;
77415;SDS011;66489;49.230;8.520;2023-03-02T17:47:51;31.45;;;17.65;;
77415;SDS011;66489;49.230;8.520;2023-03-02T17:50:19;33.13;;;19.45;;
77415;SDS011;66489;49.230;8.520;2023-03-02T17:52:46;37.75;;;23.25;;
77415;SDS011;66489;49.230;8.520;2023-03-02T17:55:14;43.38;;;24.90;;
77415;SDS011;66489;49.230;8.520;2023-03-02T17:57:41;34.40;;;19.77;;
77415;SDS011;66489;49.230;8.520;2023-03-02T18:00:08;55.03;;;34.15;;
77415;SDS011;66489;49.230;8.520;2023-03-02T18:02:39;31.33;;;17.60;;
77415;SDS011;66489;49.230;8.520;2023-03-02T18:05:06;36.47;;;19.27;;
77415;SDS011;66489;49.230;8.520;2023-03-02T18:07:35;32.22;;;18.73;;
77415;SDS011;66489;49.230;8.520;2023-03-02T18:10:02;35.83;;;19.85;;
77415;SDS011;66489;49.230;8.520;2023-03-02T18:12:30;38.13;;;21.25;;
77415;SDS011;66489;49.230;8.520;2023-03-02T18:14:56;33.75;;;19.83;;
77415;SDS011;66489;49.230;8.520;2023-03-02T18:17:23;39.78;;;20.35;;
77415;SDS011;66489;49.230;8.520;2023-03-02T18:19:49;34.00;;;19.45;;
77415;SDS011;66489;49.230;8.520;2023-03-02T18:22:16;37.88;;;19.50;;
77415;SDS011;66489;49.230;8.520;2023-03-02T18:24:46;35.78;;;18.63;;
77415;SDS011;66489;49.230;8.520;2023-03-02T18:27:26;35.90;;;18.25;;
77415;SDS011;66489;49.230;8.520;2023-03-02T18:29:56;37.22;;;18.83;;
77415;SDS011;66489;49.230;8.520;2023-03-02T18:37:23;32.85;;;17.80;;
77415;SDS011;66489;49.230;8.520;2023-03-02T18:40:02;37.83;;;19.00;;
77415;SDS011;66489;49.230;8.520;2023-03-02T18:42:29;35.08;;;19.50;;
77415;SDS011;66489;49.230;8.520;2023-03-02T18:44:56;35.67;;;19.85;;
77415;SDS011;66489;49.230;8.520;2023-03-02T18:47:23;33.88;;;19.08;;
77415;SDS011;66489;49.230;8.520;2023-03-02T18:49:50;36.53;;;20.40;;
77415;SDS011;66489;49.230;8.520;2023-03-02T18:52:17;37.13;;;19.30;;
77415;SDS011;66489;49.230;8.520;2023-03-02T18:54:45;36.25;;;20.27;;
77415;SDS011;66489;49.230;8.520;2023-03-02T18:57:12;36.15;;;20.63;;
77415;SDS011;66489;49.230;8.520;2023-03-02T18:59:39;39.10;;;20.65;;
77415;SDS011;66489;49.230;8.520;2023-03-02T19:02:08;36.10;;;19.20;;
77415;SDS011;66489;49.230;8.520;2023-03-02T19:04:37;34.95;;;18.58;;
77415;SDS011;66489;49.230;8.520;2023-03-02T19:07:04;38.42;;;18.77;;
77415;SDS011;66489;49.230;8.520;2023-03-02T19:09:32;35.40;;;18.17;;
77415;SDS011;66489;49.230;8.520;2023-03-02T19:12:00;37.00;;;19.63;;
77415;SDS011;66489;49.230;8.520;2023-03-02T19:14:27;34.67;;;19.33;;
77415;SDS011;66489;49.230;8.520;2023-03-02T19:16:53;36.08;;;17.90;;
77415;SDS011;66489;49.230;8.520;2023-03-02T19:19:20;35.10;;;18.08;;
77415;SDS011;66489;49.230;8.520;2023-03-02T19:21:48;34.15;;;18.88;;
77415;SDS011;66489;49.230;8.520;2023-03-02T19:24:14;39.70;;;18.77;;
77415;SDS011;66489;49.230;8.520;2023-03-02T19:26:41;34.33;;;18.73;;
77415;SDS011;66489;49.230;8.520;2023-03-02T19:29:12;36.47;;;19.55;;
77415;SDS011;66489;49.230;8.520;2023-03-02T19:31:41;37.67;;;19.48;;
77415;SDS011;66489;49.230;8.520;2023-03-02T19:34:24;34.38;;;19.17;;
77415;SDS011;66489;49.230;8.520;2023-03-02T19:36:51;35.75;;;19.13;;
77415;SDS011;66489;49.230;8.520;2023-03-02T19:39:18;39.72;;;19.98;;
77415;SDS011;66489;49.230;8.520;2023-03-02T19:41:48;38.28;;;19.33;;
77415;SDS011;66489;49.230;8.520;2023-03-02T19:44:17;39.10;;;19.65;;
77415;SDS011;66489;49.230;8.520;2023-03-02T19:46:56;35.08;;;19.08;;
77415;SDS011;66489;49.230;8.520;2023-03-02T19:49:23;37.63;;;19.98;;
77415;SDS011;66489;49.230;8.520;2023-03-02T19:51:50;38.05;;;20.38;;
77415;SDS011;66489;49.230;8.520;2023-03-02T19:54:16;37.75;;;19.75;;
77415;SDS011;66489;49.230;8.520;2023-03-02T19:56:43;39.55;;;19.77;;
77415;SDS011;66489;49.230;8.520;2023-03-02T19:59:15;36.75;;;20.08;;
77415;SDS011;66489;49.230;8.520;2023-03-02T20:01:41;43.05;;;21.58;;
77415;SDS011;66489;49.230;8.520;2023-03-02T20:04:08;37.35;;;19.75;;
77415;SDS011;66489;49.230;8.520;2023-03-02T20:06:35;44.67;;;22.00;;
77415;SDS011;66489;49.230;8.520;2023-03-02T20:09:04;43.17;;;21.92;;
77415;SDS011;66489;49.230;8.520;2023-03-02T20:11:31;40.30;;;20.70;;
77415;SDS011;66489;49.230;8.520;2023-03-02T20:13:58;42.88;;;21.30;;
77415;SDS011;66489;49.230;8.520;2023-03-02T20:16:29;41.35;;;20.70;;
77415;SDS011;66489;49.230;8.520;2023-03-02T20:18:57;46.95;;;21.50;;
77415;SDS011;66489;49.230;8.520;2023-03-02T20:21:28;44.13;;;24.30;;
77415;SDS011;66489;49.230;8.520;2023-03-02T20:23:55;41.83;;;21.65;;
77415;SDS011;66489;49.230;8.520;2023-03-02T20:26:22;41.20;;;21.33;;
77415;SDS011;66489;49.230;8.520;2023-03-02T20:28:50;45.47;;;22.40;;
77415;SDS011;66489;49.230;8.520;2023-03-02T20:31:18;40.45;;;21.42;;
77415;SDS011;66489;49.230;8.520;2023-03-02T20:33:46;43.10;;;23.20;;